In Rescue
 
Open Full Screen Window  High Contrast Mode
Wind Gusting 00 knots
06
May 28, 2020 4:27 PM EDT
Weather Information
Wind Direction
  220 °
Wind Speed
  06 kt (7 mph)
Wind Gust
  00 kt (0 mph)
Altimeter
29.93 in
Visibility
10 SM
Temperature
28° C
82° F
Dewpoint
17° C
63° F
Humidity
51%
1hr Rain Fall
00.00 in.
24hr Rain Fall
00.15 in.
Sky Condition
Broken @ 6,000 ft
Scattered @ 5,000 ft
VFR

METAR KI69 282027Z AUTO 22006KT 10SM SCT050 BKN060 28/17 A2993 RMK AO2 T02780173

FAA Disclaimer: The data displayed is for advisory purposes only and is not to be used for flight planning or operations.